EDHI/XFW METAR and TAF weather

Enter ICAO airport designator
Station Type Date Time Source
EDHI METAR 2018/04/21 20:50 UTC NOAA

EDHI 212050Z AUTO 21002KT 9999 // NCD 10/05 Q1020


Station Type Date Time Source
EDHI Decoded METAR 2018/04/21 20:50 UTC NOAA

Hamburg-Finkenwerder, Germany (EDHI) 53-32N 009-50E 13M
Apr 21, 2018 - 04:50 PM EDT / 2018.04.21 2050 UTC
Wind: from the SSW (210 degrees) at 2 MPH (2 KT):0
Visibility: greater than 7 mile(s):0
Temperature: 50 F (10 C)
Dew Point: 41 F (5 C)
Relative Humidity: 71%
Pressure (altimeter): 30.12 in. Hg (1020 hPa)
ob: EDHI 212050Z AUTO 21002KT 9999 // NCD 10/05 Q1020
cycle: 21

Station Type Date Time Source
EDHI TAF 2010/02/22 14:20 UTC NOAA

METAR EDHI 221420Z 17005KT 9999 BKN030 05/02 Q0989


Example: see airport list